Time;durP1;ratioP1;P1;durP2;ratioP2;P2;SDS_P1;SDS_P2;PMS_P1;PMS_P2;Temp;Humidity;BMP_temperature;BMP_pressure;BME280_temperature;BME280_humidity;BME280_pressure;Samples;Min_cycle;Max_cycle;Signal;HPM_P1;HPM_P2
2022/07/28 00:01:36;;;;;;;;;;;;;;;28.47;36.76;101006.59;4413687;32;19981;-66
2022/07/28 00:04:01;;;;;;;;;;;;;;;28.71;36.44;101004.22;4416300;32;20060;-66
2022/07/28 00:06:27;;;;;;;;;;;;;;;29.09;36.04;101006.84;4412837;32;20440;-66
2022/07/28 00:08:53;;;;;;;;;;;;;;;28.97;36.08;101009.94;4415781;32;20379;-66
2022/07/28 00:11:19;;;;;;;;;;;;;;;29.39;35.56;101013.75;4416504;32;19965;-66
2022/07/28 00:13:44;;;;;;;;;;;;;;;29.18;35.59;101012.16;4413858;32;19954;-66
2022/07/28 00:16:10;;;;;;;;;;;;;;;29.60;34.89;101007.97;4409883;32;19965;-66
2022/07/28 00:18:35;;;;;;;;;;;;;;;29.97;34.74;101008.31;4412811;32;19957;-66
2022/07/28 00:21:01;;;;;;;;;;;;;;;29.63;34.65;101003.97;4414650;32;19997;-66
2022/07/28 00:23:27;;;;;;;;;;;;;;;29.93;34.35;101004.22;4412231;32;19995;-66
2022/07/28 00:25:52;;;;;;;;;;;;;;;29.98;34.20;101003.31;4414545;32;19965;-66
2022/07/28 00:28:18;;;;;;;;;;;;;;;30.17;33.74;101007.53;4409834;32;19984;-66
2022/07/28 00:30:43;;;;;;;;;;;;;;;29.57;34.39;101001.16;4415419;32;20024;-66
2022/07/28 00:33:09;;;;;;;;;;;;;;;30.01;34.04;100994.25;4412288;32;19997;-66
2022/07/28 00:35:35;;;;;;;;;;;;;;;29.67;34.08;100989.87;4413871;32;20015;-67
2022/07/28 00:38:01;;;;;;;;;;;;;;;29.51;34.13;100979.47;4414659;32;20618;-66
2022/07/28 00:43:13;;;;;;;;;;;;;;;29.64;33.93;100985.22;4413938;32;20029;-66
2022/07/28 00:45:39;;;;;;;;;;;;;;;29.90;33.64;100982.16;4412806;32;19971;-66
2022/07/28 00:48:04;;;;;;;;;;;;;;;30.15;33.52;100989.09;4414857;32;20017;-66
2022/07/28 00:50:30;;;;;;;;;;;;;;;30.12;33.31;100996.84;4417115;32;19986;-66
2022/07/28 00:52:56;;;;;;;;;;;;;;;30.07;32.99;101000.66;4422046;32;19960;-66
2022/07/28 00:55:22;;;;;;;;;;;;;;;30.32;33.05;100998.16;4424338;32;19994;-66
2022/07/28 00:57:47;;;;;;;;;;;;;;;30.55;32.91;100996.16;4423750;32;20271;-67
2022/07/28 01:00:13;;;;;;;;;;;;;;;29.73;33.37;100991.28;4425942;32;20055;-66
2022/07/28 01:02:39;;;;;;;;;;;;;;;29.94;33.54;100997.09;4425309;32;20358;-67
2022/07/28 01:05:05;;;;;;;;;;;;;;;30.38;32.97;100999.56;4423141;32;19959;-67
2022/07/28 01:07:34;;;;;;;;;;;;;;;29.96;33.46;101003.88;4424387;32;20411;-66
2022/07/28 01:15:36;;;;;;;;;;;;;;;30.38;33.19;101001.69;3956974;32;15729516;-68
2022/07/28 01:28:45;;;;;;;;;;;;;;;29.80;33.85;101004.31;3953378;32;15723565;-68
2022/07/28 01:31:14;;;;;;;;;;;;;;;29.80;33.85;101004.31;4435632;32;20012;-68
2022/07/28 01:33:43;;;;;;;;;;;;;;;29.59;33.89;100998.50;4434123;32;20286;-67
2022/07/28 01:36:10;;;;;;;;;;;;;;;29.74;33.40;100998.66;4436794;32;19960;-68
2022/07/28 01:38:37;;;;;;;;;;;;;;;29.48;33.94;101004.56;4437371;32;19957;-68
2022/07/28 01:41:04;;;;;;;;;;;;;;;29.77;33.64;101002.53;4435692;32;20009;-67
2022/07/28 01:43:32;;;;;;;;;;;;;;;30.18;33.23;101005.38;4435974;32;20053;-67
2022/07/28 01:45:58;;;;;;;;;;;;;;;29.90;33.21;101005.34;4436057;32;19989;-68
2022/07/28 01:48:24;;;;;;;;;;;;;;;30.17;32.64;100998.03;4435248;32;20003;-67
2022/07/28 01:50:53;;;;;;;;;;;;;;;30.25;32.94;101007.63;4435157;32;19968;-68
2022/07/28 01:53:19;;;;;;;;;;;;;;;29.89;33.09;100995.91;4435949;32;19988;-67
2022/07/28 01:55:45;;;;;;;;;;;;;;;29.77;34.03;100996.75;4435276;32;19945;-67
2022/07/28 01:58:12;;;;;;;;;;;;;;;30.25;32.97;100996.00;4436005;32;20032;-68
2022/07/28 02:00:38;;;;;;;;;;;;;;;30.42;32.83;101005.78;4435571;32;19997;-67
2022/07/28 02:03:05;;;;;;;;;;;;;;;29.91;33.32;100999.00;4436389;32;19959;-67
2022/07/28 02:05:32;;;;;;;;;;;;;;;29.83;33.21;100989.47;4434078;32;20685;-67
2022/07/28 02:08:00;;;;;;;;;;;;;;;29.74;33.59;100992.06;4435123;32;20361;-67
2022/07/28 02:10:27;;;;;;;;;;;;;;;29.92;33.26;100991.84;4435214;32;19938;-67
2022/07/28 02:12:54;;;;;;;;;;;;;;;29.31;33.67;100988.91;4436016;32;19984;-67
2022/07/28 02:15:20;;;;;;;;;;;;;;;29.70;33.42;100991.66;4436155;32;19995;-67
2022/07/28 02:17:46;;;;;;;;;;;;;;;29.48;34.28;100986.41;4432691;32;20050;-67
2022/07/28 02:20:12;;;;;;;;;;;;;;;29.67;33.48;100989.87;4422180;32;20347;-67
2022/07/28 02:22:39;;;;;;;;;;;;;;;29.74;33.60;100992.87;4434703;32;20002;-67
2022/07/28 02:25:05;;;;;;;;;;;;;;;29.81;33.66;100985.56;4432748;32;20258;-66
2022/07/28 02:30:10;;;;;;;;;;;;;;;30.08;33.26;100993.53;3951722;32;15725619;-67
2022/07/28 02:32:37;;;;;;;;;;;;;;;30.08;33.26;100993.53;4427356;32;19997;-66
2022/07/28 02:35:07;;;;;;;;;;;;;;;29.57;33.54;100991.72;4426505;32;19949;-67
2022/07/28 02:37:35;;;;;;;;;;;;;;;29.52;33.35;100989.72;4424163;32;19991;-66
2022/07/28 02:40:01;;;;;;;;;;;;;;;29.07;34.00;100983.41;4424923;32;19999;-67
2022/07/28 02:42:29;;;;;;;;;;;;;;;29.15;33.95;100987.19;4427795;32;19957;-67
2022/07/28 02:44:57;;;;;;;;;;;;;;;29.05;33.99;100989.03;4424596;32;19962;-67
2022/07/28 02:47:24;;;;;;;;;;;;;;;29.25;34.09;100989.06;4425195;32;20007;-67
2022/07/28 02:49:51;;;;;;;;;;;;;;;29.05;34.18;100983.22;4425202;32;21322;-67
2022/07/28 02:52:17;;;;;;;;;;;;;;;29.11;33.99;100992.56;4426041;32;19957;-67
2022/07/28 02:54:43;;;;;;;;;;;;;;;29.26;33.85;100986.94;4413644;32;19965;-67
2022/07/28 02:57:11;;;;;;;;;;;;;;;29.38;33.59;100994.00;4428043;32;19949;-67
2022/07/28 02:59:37;;;;;;;;;;;;;;;29.37;34.01;100993.25;4425374;32;20024;-67
2022/07/28 03:02:02;;;;;;;;;;;;;;;29.44;33.62;100985.94;4425485;32;19962;-67
2022/07/28 03:05:01;;;;;;;;;;;;;;;29.61;33.67;100989.22;4425233;32;19966;-67
2022/07/28 03:07:15;;;;;;;;;;;;;;;29.51;33.81;100988.16;4426129;32;19990;-67
2022/07/28 03:09:41;;;;;;;;;;;;;;;29.71;33.50;100987.41;4428992;32;20077;-67
2022/07/28 03:12:07;;;;;;;;;;;;;;;29.56;33.46;100982.22;4429448;32;19985;-67
2022/07/28 03:14:33;;;;;;;;;;;;;;;29.58;33.66;100991.12;4424271;32;19964;-67
2022/07/28 03:16:58;;;;;;;;;;;;;;;29.50;33.71;100990.28;4426405;32;20011;-67
2022/07/28 03:19:24;;;;;;;;;;;;;;;29.31;33.89;100983.13;4424332;32;20030;-67
2022/07/28 03:21:51;;;;;;;;;;;;;;;29.53;33.92;100979.66;4425964;32;19958;-67
2022/07/28 03:24:19;;;;;;;;;;;;;;;29.80;33.79;100981.09;4425492;32;19961;-67
2022/07/28 03:26:48;;;;;;;;;;;;;;;29.78;33.84;100981.66;4426992;32;19961;-67
2022/07/28 03:29:16;;;;;;;;;;;;;;;29.47;34.32;100987.72;4422913;32;19961;-67
2022/07/28 03:31:43;;;;;;;;;;;;;;;29.71;34.07;100978.69;4429284;32;19982;-67
2022/07/28 03:34:10;;;;;;;;;;;;;;;29.81;34.04;100986.34;4423001;32;20040;-67
2022/07/28 03:36:38;;;;;;;;;;;;;;;29.73;33.98;100990.53;4423444;32;20017;-67
2022/07/28 03:39:08;;;;;;;;;;;;;;;29.59;34.14;100986.88;4425138;32;19957;-67
2022/07/28 03:41:35;;;;;;;;;;;;;;;29.58;33.99;100991.12;4415367;32;20042;-66
2022/07/28 03:44:01;;;;;;;;;;;;;;;29.66;34.21;100997.03;4414267;32;19954;-66
2022/07/28 03:46:27;;;;;;;;;;;;;;;29.54;34.33;100990.69;4415332;32;20046;-67
2022/07/28 03:48:53;;;;;;;;;;;;;;;29.45;35.06;101005.69;4415903;32;20844;-67
2022/07/28 03:51:19;;;;;;;;;;;;;;;29.33;35.03;100992.03;4415472;32;20278;-68
2022/07/28 03:53:45;;;;;;;;;;;;;;;29.43;33.75;100990.19;4414459;32;20003;-68
2022/07/28 03:56:11;;;;;;;;;;;;;;;29.18;34.24;100997.66;4417777;32;20016;-68
2022/07/28 03:58:37;;;;;;;;;;;;;;;29.35;33.68;100993.03;4413582;32;20035;-67
2022/07/28 04:01:03;;;;;;;;;;;;;;;28.88;34.19;100989.37;4415213;32;20003;-67
2022/07/28 04:03:29;;;;;;;;;;;;;;;28.66;33.71;100984.81;4413696;32;19953;-67
2022/07/28 04:05:55;;;;;;;;;;;;;;;28.84;33.53;100989.69;4415595;32;20471;-68
2022/07/28 04:08:21;;;;;;;;;;;;;;;29.04;34.44;100988.22;4416442;32;20072;-68
2022/07/28 04:10:46;;;;;;;;;;;;;;;29.17;34.46;100993.97;4416614;32;20306;-68
2022/07/28 04:13:11;;;;;;;;;;;;;;;29.12;34.60;100994.91;4416345;32;20382;-68
2022/07/28 04:15:37;;;;;;;;;;;;;;;29.28;34.18;100990.03;4415339;32;20052;-68
2022/07/28 04:18:03;;;;;;;;;;;;;;;29.34;34.59;100990.69;4416731;32;20382;-68
2022/07/28 04:20:28;;;;;;;;;;;;;;;29.35;34.18;100992.22;4416278;32;19969;-68
2022/07/28 04:22:54;;;;;;;;;;;;;;;29.25;34.35;100994.06;4415547;32;19961;-69
2022/07/28 04:25:22;;;;;;;;;;;;;;;29.18;34.13;100997.66;4414270;32;19993;-67
2022/07/28 04:27:48;;;;;;;;;;;;;;;29.24;34.36;100990.41;4417153;32;20089;-69
2022/07/28 04:30:16;;;;;;;;;;;;;;;29.52;34.26;100986.81;4410441;32;19957;-68
2022/07/28 04:32:43;;;;;;;;;;;;;;;29.63;34.28;100992.38;4416076;32;20255;-69
2022/07/28 04:35:09;;;;;;;;;;;;;;;29.74;34.14;100987.06;4414285;32;20004;-69
2022/07/28 04:37:35;;;;;;;;;;;;;;;29.65;34.78;100996.25;4417034;32;19945;-69
2022/07/28 04:40:01;;;;;;;;;;;;;;;29.68;34.54;100995.12;4413940;32;20044;-68
2022/07/28 04:42:26;;;;;;;;;;;;;;;29.72;34.47;100997.66;4415550;32;19980;-68
2022/07/28 04:44:51;;;;;;;;;;;;;;;29.53;33.51;100997.06;4412062;32;19996;-69
2022/07/28 04:47:17;;;;;;;;;;;;;;;29.46;34.67;100994.88;4412715;32;19985;-69
2022/07/28 04:49:42;;;;;;;;;;;;;;;29.61;34.70;101000.81;4401050;32;20089;-69
2022/07/28 04:52:08;;;;;;;;;;;;;;;29.40;34.42;101005.81;4415074;32;19946;-69
2022/07/28 04:54:34;;;;;;;;;;;;;;;29.50;34.76;101001.09;4416898;32;20005;-69
2022/07/28 04:57:00;;;;;;;;;;;;;;;29.47;34.26;100993.53;4415590;32;20017;-69
2022/07/28 04:59:26;;;;;;;;;;;;;;;29.58;34.50;101002.75;4412764;32;20344;-69
2022/07/28 05:01:51;;;;;;;;;;;;;;;29.47;34.58;100997.22;4416092;32;20396;-69
2022/07/28 05:04:17;;;;;;;;;;;;;;;29.74;34.29;100992.87;4416524;32;20354;-68
2022/07/28 05:06:42;;;;;;;;;;;;;;;29.60;34.52;100993.47;4415610;32;19989;-67
2022/07/28 05:09:08;;;;;;;;;;;;;;;29.69;34.41;100995.91;4414335;32;19962;-67
2022/07/28 05:11:33;;;;;;;;;;;;;;;29.52;34.76;100993.41;4412906;32;20046;-67
2022/07/28 05:13:59;;;;;;;;;;;;;;;29.74;34.17;100998.66;4412674;32;20374;-67
2022/07/28 05:16:24;;;;;;;;;;;;;;;29.65;34.47;100998.38;4413136;32;20008;-67
2022/07/28 05:18:50;;;;;;;;;;;;;;;29.67;34.60;100998.59;4411167;32;19962;-67
2022/07/28 05:21:16;;;;;;;;;;;;;;;29.84;34.81;100996.03;4413420;32;19961;-67
2022/07/28 05:23:41;;;;;;;;;;;;;;;29.86;34.95;100990.44;4413743;32;20375;-67
2022/07/28 05:26:07;;;;;;;;;;;;;;;29.95;34.84;100992.84;4412935;32;19960;-67
2022/07/28 05:28:32;;;;;;;;;;;;;;;29.99;35.29;100996.94;4411786;32;19964;-67
2022/07/28 05:30:58;;;;;;;;;;;;;;;30.10;34.98;100996.63;4413662;32;19956;-67
2022/07/28 05:33:25;;;;;;;;;;;;;;;29.98;34.80;100998.28;4415307;32;19950;-67
2022/07/28 05:35:52;;;;;;;;;;;;;;;30.07;34.51;100994.09;4413889;32;20446;-67
2022/07/28 05:38:17;;;;;;;;;;;;;;;29.86;34.45;100996.25;4413019;32;19953;-67
2022/07/28 05:40:43;;;;;;;;;;;;;;;29.71;34.27;100999.00;4415405;32;19993;-67
2022/07/28 05:43:08;;;;;;;;;;;;;;;29.81;34.52;100997.94;4414611;32;20315;-67
2022/07/28 05:45:34;;;;;;;;;;;;;;;29.86;34.19;100990.44;4411304;32;19954;-67
2022/07/28 05:47:59;;;;;;;;;;;;;;;29.73;34.03;100991.28;4413117;32;20646;-67
2022/07/28 05:50:25;;;;;;;;;;;;;;;29.90;34.42;100991.62;4418654;32;20008;-67
2022/07/28 05:52:50;;;;;;;;;;;;;;;29.97;34.47;100995.97;4414513;32;19973;-67
2022/07/28 05:55:16;;;;;;;;;;;;;;;29.78;33.90;101004.88;4413312;32;20353;-67
2022/07/28 05:57:42;;;;;;;;;;;;;;;29.75;34.20;101003.09;4412488;32;19977;-67
2022/07/28 06:00:09;;;;;;;;;;;;;;;29.82;34.32;101004.53;4414033;32;20365;-67
2022/07/28 06:02:35;;;;;;;;;;;;;;;29.67;34.18;100998.59;4414258;32;19990;-67
2022/07/28 06:05:01;;;;;;;;;;;;;;;29.80;34.31;100998.50;4411835;32;19987;-67
2022/07/28 06:07:26;;;;;;;;;;;;;;;29.93;34.31;100998.41;4412516;32;19985;-67
2022/07/28 06:09:52;;;;;;;;;;;;;;;29.87;34.10;100995.69;4411430;32;19957;-67
2022/07/28 06:12:17;;;;;;;;;;;;;;;30.11;33.91;100997.41;4412658;32;20005;-67
2022/07/28 06:14:43;;;;;;;;;;;;;;;30.32;33.87;100995.28;4413266;32;19969;-67
2022/07/28 06:17:08;;;;;;;;;;;;;;;30.14;33.65;100993.37;4411878;32;20356;-67
2022/07/28 06:19:34;;;;;;;;;;;;;;;30.30;33.64;100995.06;4411256;32;21050;-67
2022/07/28 06:21:59;;;;;;;;;;;;;;;30.35;33.61;101003.63;4410457;32;19965;-67
2022/07/28 06:24:24;;;;;;;;;;;;;;;30.41;33.59;100997.66;4416463;32;19979;-67
2022/07/28 06:26:51;;;;;;;;;;;;;;;30.40;34.14;101001.91;4410810;32;19950;-67
2022/07/28 06:29:17;;;;;;;;;;;;;;;30.55;33.58;100999.06;4411195;32;19995;-67
2022/07/28 06:31:43;;;;;;;;;;;;;;;30.68;33.34;100991.00;4413631;32;19986;-67
2022/07/28 06:34:08;;;;;;;;;;;;;;;30.83;33.52;100996.13;4411910;32;20332;-68
2022/07/28 06:36:33;;;;;;;;;;;;;;;30.75;33.26;100993.22;4410866;32;19994;-67
2022/07/28 06:38:59;;;;;;;;;;;;;;;30.88;32.71;101003.94;4412574;32;19997;-68
2022/07/28 06:41:24;;;;;;;;;;;;;;;30.78;32.70;101000.81;4414370;32;20014;-67
2022/07/28 06:43:51;;;;;;;;;;;;;;;30.73;33.23;101010.44;4412862;32;19989;-68
2022/07/28 06:46:18;;;;;;;;;;;;;;;30.68;33.38;101001.88;4412944;32;19965;-68
2022/07/28 06:48:44;;;;;;;;;;;;;;;30.60;33.32;101006.84;4410045;32;20316;-68
2022/07/28 06:51:11;;;;;;;;;;;;;;;30.71;33.24;101009.44;4412662;32;19945;-67
2022/07/28 06:53:36;;;;;;;;;;;;;;;30.70;33.33;101008.66;4413131;32;20036;-68
2022/07/28 06:56:03;;;;;;;;;;;;;;;30.83;33.41;101004.09;4412695;32;20005;-68
2022/07/28 06:58:29;;;;;;;;;;;;;;;30.69;33.04;101006.31;4409463;32;19965;-68
2022/07/28 07:00:54;;;;;;;;;;;;;;;30.77;33.18;101010.09;4414099;32;19991;-68
2022/07/28 07:03:19;;;;;;;;;;;;;;;30.68;32.74;101004.78;4410531;32;20775;-68
2022/07/28 07:05:45;;;;;;;;;;;;;;;30.71;32.70;101012.34;4412066;32;19957;-68
2022/07/28 07:08:10;;;;;;;;;;;;;;;30.79;32.05;101010.28;4413258;32;19996;-68
2022/07/28 07:10:36;;;;;;;;;;;;;;;30.91;32.67;101008.59;4411208;32;19961;-67
2022/07/28 07:13:02;;;;;;;;;;;;;;;30.93;32.68;101010.94;4413824;32;19980;-67
2022/07/28 07:15:27;;;;;;;;;;;;;;;30.91;32.94;101007.81;4413384;32;20177;-68
2022/07/28 07:17:53;;;;;;;;;;;;;;;30.95;33.23;101003.16;4411750;32;20357;-68
2022/07/28 07:20:19;;;;;;;;;;;;;;;30.90;33.25;101009.94;4418580;32;19953;-68
2022/07/28 07:22:45;;;;;;;;;;;;;;;31.12;33.11;101012.16;4416198;32;19953;-68
2022/07/28 07:25:12;;;;;;;;;;;;;;;31.14;32.50;101011.59;4414625;32;19980;-68
2022/07/28 07:27:38;;;;;;;;;;;;;;;31.29;32.56;101023.31;4416622;32;19981;-68
2022/07/28 07:30:04;;;;;;;;;;;;;;;31.10;32.29;101017.78;4416961;32;20012;-68
2022/07/28 07:32:30;;;;;;;;;;;;;;;31.14;32.56;101018.19;4415706;32;20051;-68
2022/07/28 07:34:55;;;;;;;;;;;;;;;31.13;32.73;101022.44;4411443;32;20005;-68
2022/07/28 07:37:21;;;;;;;;;;;;;;;31.21;33.04;101014.53;4415275;32;19988;-68
2022/07/28 07:39:46;;;;;;;;;;;;;;;31.34;32.81;101017.28;4415204;32;20621;-68
2022/07/28 07:42:12;;;;;;;;;;;;;;;31.46;32.82;101020.63;4414501;32;19961;-68
2022/07/28 07:44:37;;;;;;;;;;;;;;;31.31;31.78;101012.63;4415936;32;20007;-68
2022/07/28 07:47:03;;;;;;;;;;;;;;;31.30;31.56;101016.91;4415244;32;20367;-68
2022/07/28 07:49:29;;;;;;;;;;;;;;;31.04;32.02;101017.16;4414290;32;20395;-68
2022/07/28 07:51:54;;;;;;;;;;;;;;;31.22;32.05;101021.09;4415364;32;20034;-68
2022/07/28 07:54:20;;;;;;;;;;;;;;;31.15;31.57;101019.75;4415034;32;19982;-68
2022/07/28 07:56:46;;;;;;;;;;;;;;;31.24;31.56;101019.19;4415388;32;19961;-68
2022/07/28 07:59:11;;;;;;;;;;;;;;;31.22;32.07;101018.97;4416505;32;20493;-68
2022/07/28 08:01:36;;;;;;;;;;;;;;;31.16;31.82;101027.09;4416177;32;20323;-68
2022/07/28 08:04:03;;;;;;;;;;;;;;;31.22;32.00;101029.81;4414014;32;20118;-68
2022/07/28 08:06:29;;;;;;;;;;;;;;;31.39;31.90;101033.81;4398093;32;20408;-68
2022/07/28 08:08:54;;;;;;;;;;;;;;;31.56;31.32;101030.31;4416436;32;19964;-68
2022/07/28 08:11:20;;;;;;;;;;;;;;;31.72;31.42;101032.69;4415596;32;20068;-68
2022/07/28 08:13:46;;;;;;;;;;;;;;;31.58;31.69;101030.53;4414633;32;20003;-68
2022/07/28 08:16:11;;;;;;;;;;;;;;;31.72;31.42;101035.59;4413745;32;20036;-68
2022/07/28 08:18:37;;;;;;;;;;;;;;;31.63;31.24;101032.50;4416476;32;20371;-68
2022/07/28 08:21:03;;;;;;;;;;;;;;;31.69;30.60;101033.09;4414885;32;19946;-68
2022/07/28 08:23:28;;;;;;;;;;;;;;;31.64;30.90;101034.03;4413927;32;20430;-68
2022/07/28 08:25:54;;;;;;;;;;;;;;;31.92;31.43;101040.50;4413560;32;20001;-68
2022/07/28 08:28:19;;;;;;;;;;;;;;;31.91;31.82;101038.19;4412732;32;19953;-68
2022/07/28 08:30:45;;;;;;;;;;;;;;;31.88;31.59;101036.44;4416441;32;20016;-68
2022/07/28 08:33:10;;;;;;;;;;;;;;;31.94;30.68;101037.78;4415989;32;20306;-68
2022/07/28 08:35:36;;;;;;;;;;;;;;;32.32;30.95;101041.47;4411373;32;20398;-68
2022/07/28 08:38:02;;;;;;;;;;;;;;;32.37;30.40;101039.75;4413265;32;19985;-68
2022/07/28 08:40:28;;;;;;;;;;;;;;;32.46;30.70;101034.09;4413751;32;19997;-68
2022/07/28 08:45:30;;;;;;;;;;;;;;;32.61;29.63;101036.22;3951668;32;15728373;-68
2022/07/28 08:47:56;;;;;;;;;;;;;;;32.61;29.63;101036.22;4428167;32;19984;-68
2022/07/28 08:50:23;;;;;;;;;;;;;;;32.30;30.15;101034.66;4426523;32;20353;-69
2022/07/28 08:52:50;;;;;;;;;;;;;;;32.47;30.00;101029.81;4430607;32;20118;-68
2022/07/28 08:55:25;;;;;;;;;;;;;;;32.61;29.54;101039.88;4428451;32;20016;-69
2022/07/28 08:57:55;;;;;;;;;;;;;;;32.81;29.57;101034.38;4429279;32;19985;-68
2022/07/28 09:00:21;;;;;;;;;;;;;;;32.85;29.47;101041.34;4428046;32;20444;-69
2022/07/28 09:02:48;;;;;;;;;;;;;;;32.97;29.28;101050.50;4433507;32;20052;-68
2022/07/28 09:05:14;;;;;;;;;;;;;;;33.12;28.53;101045.38;4426933;32;19997;-69
2022/07/28 09:07:40;;;;;;;;;;;;;;;33.19;28.74;101035.81;4428147;32;20354;-69
2022/07/28 09:10:06;;;;;;;;;;;;;;;33.63;28.49;101042.00;4426394;32;19971;-69
2022/07/28 09:12:32;;;;;;;;;;;;;;;33.55;28.18;101035.44;4433471;32;19992;-69
2022/07/28 09:15:00;;;;;;;;;;;;;;;33.89;28.27;101044.38;4426184;32;19976;-69
2022/07/28 09:17:25;;;;;;;;;;;;;;;34.06;27.10;101042.31;4428700;32;19976;-69
2022/07/28 09:19:51;;;;;;;;;;;;;;;34.34;26.88;101044.00;4430656;32;19989;-69
2022/07/28 09:22:17;;;;;;;;;;;;;;;34.57;27.01;101035.78;4425957;32;20099;-69
2022/07/28 09:24:43;;;;;;;;;;;;;;;34.48;26.30;101030.63;4428909;32;19993;-69
2022/07/28 09:27:10;;;;;;;;;;;;;;;34.42;26.89;101041.81;4429463;32;19982;-69
2022/07/28 09:29:37;;;;;;;;;;;;;;;34.74;25.97;101029.94;4427991;32;19987;-69
2022/07/28 09:32:03;;;;;;;;;;;;;;;35.06;26.60;101032.69;4427792;32;19984;-67
2022/07/28 09:34:37;;;;;;;;;;;;;;;35.47;25.51;101031.00;4428036;32;20023;-68
2022/07/28 09:37:03;;;;;;;;;;;;;;;35.71;25.43;101027.13;4429362;32;20316;-68
2022/07/28 09:39:31;;;;;;;;;;;;;;;35.60;25.23;101033.53;4425654;32;20013;-68
2022/07/28 09:41:58;;;;;;;;;;;;;;;35.85;25.20;101034.16;4425956;32;19984;-68
2022/07/28 09:44:26;;;;;;;;;;;;;;;35.83;25.08;101025.22;4431091;32;19953;-68
2022/07/28 09:46:51;;;;;;;;;;;;;;;36.07;25.12;101033.78;4427753;32;20376;-68
2022/07/28 09:49:17;;;;;;;;;;;;;;;36.22;24.54;101029.06;4427305;32;20000;-68
2022/07/28 09:51:58;;;;;;;;;;;;;;;36.52;23.73;101025.56;4429487;32;20008;-68
2022/07/28 09:54:23;;;;;;;;;;;;;;;36.89;23.87;101033.66;4430230;32;20005;-68
2022/07/28 09:56:48;;;;;;;;;;;;;;;37.28;24.06;101026.41;4420713;32;19985;-68
2022/07/28 09:59:16;;;;;;;;;;;;;;;37.48;23.32;101032.97;4417538;32;20000;-68
2022/07/28 10:01:59;;;;;;;;;;;;;;;37.05;23.62;101028.22;4420108;32;20004;-68
2022/07/28 10:04:30;;;;;;;;;;;;;;;36.85;23.14;101030.44;4417345;32;19976;-68
2022/07/28 10:07:14;;;;;;;;;;;;;;;36.84;23.42;101031.03;4418550;32;20003;-67
2022/07/28 10:09:40;;;;;;;;;;;;;;;36.92;23.21;101029.50;4414146;32;19965;-68
2022/07/28 10:12:23;;;;;;;;;;;;;;;36.92;23.48;101023.63;4419618;32;20093;-68
2022/07/28 10:14:50;;;;;;;;;;;;;;;36.68;23.58;101027.59;4417221;32;19953;-67
2022/07/28 10:17:31;;;;;;;;;;;;;;;36.78;23.61;101027.66;4421319;32;19945;-68
2022/07/28 10:20:02;;;;;;;;;;;;;;;37.03;23.29;101025.94;4416446;32;20381;-68
2022/07/28 10:22:31;;;;;;;;;;;;;;;37.04;23.22;101030.41;4417968;32;19953;-68
2022/07/28 10:24:59;;;;;;;;;;;;;;;37.29;22.98;101030.09;4416749;32;20272;-68
2022/07/28 10:27:25;;;;;;;;;;;;;;;37.87;22.34;101032.25;4416755;32;20003;-68
2022/07/28 10:29:54;;;;;;;;;;;;;;;37.74;22.68;101032.00;4419201;32;20018;-69
2022/07/28 10:32:20;;;;;;;;;;;;;;;37.86;21.97;101032.88;4416755;32;19957;-67
2022/07/28 10:34:50;;;;;;;;;;;;;;;37.96;22.57;101018.91;4416653;32;19998;-67
2022/07/28 10:37:21;;;;;;;;;;;;;;;38.63;22.00;101018.56;4417177;32;20005;-67
2022/07/28 10:39:48;;;;;;;;;;;;;;;38.44;21.75;101033.37;4415928;32;19949;-67
2022/07/28 10:42:14;;;;;;;;;;;;;;;38.08;21.81;101027.81;4417418;32;20417;-67
2022/07/28 10:44:40;;;;;;;;;;;;;;;38.04;22.22;101019.50;4416271;32;19950;-67
2022/07/28 10:47:07;;;;;;;;;;;;;;;38.39;21.53;101029.38;4416688;32;20391;-67
2022/07/28 10:49:33;;;;;;;;;;;;;;;38.72;21.63;101027.31;4416879;32;20017;-68
2022/07/28 10:51:59;;;;;;;;;;;;;;;38.23;22.57;101025.31;4415215;32;21062;-69
2022/07/28 10:54:26;;;;;;;;;;;;;;;38.48;21.36;101028.53;4419387;32;20352;-68
2022/07/28 10:56:54;;;;;;;;;;;;;;;38.46;21.34;101028.38;4413918;32;20425;-67
2022/07/28 11:01:55;;;;;;;;;;;;;;;38.79;21.40;101028.47;3975006;31;15716657;-69
2022/07/28 11:04:40;;;;;;;;;;;;;;;38.79;21.40;101028.47;4447440;32;20044;-69
2022/07/28 11:07:11;;;;;;;;;;;;;;;38.66;21.35;101023.94;4445468;32;19957;-69
2022/07/28 11:09:36;;;;;;;;;;;;;;;38.71;21.31;101025.75;4451495;32;20000;-69
2022/07/28 11:12:01;;;;;;;;;;;;;;;39.22;20.81;101030.75;4450824;32;20008;-69
2022/07/28 11:14:29;;;;;;;;;;;;;;;38.58;20.98;101019.66;4448871;32;19993;-69
2022/07/28 11:17:11;;;;;;;;;;;;;;;38.35;21.21;101032.03;4446456;32;20001;-69
2022/07/28 11:33:08;;;;;;;;;;;;;;;40.39;19.74;101026.56;3952297;32;15723433;-69
2022/07/28 11:38:16;;;;;;;;;;;;;;;40.53;18.92;101019.38;3959810;31;15720222;-69
2022/07/28 11:40:56;;;;;;;;;;;;;;;40.53;18.92;101019.38;4428675;32;20012;-69
2022/07/28 11:48:39;;;;;;;;;;;;;;;41.90;17.70;101028.22;3959300;31;15716110;-69
2022/07/28 11:56:22;;;;;;;;;;;;;;;41.32;17.37;101022.66;4121821;31;15715815;-69
2022/07/28 11:58:55;;;;;;;;;;;;;;;41.32;17.37;101022.66;4440286;32;20619;-69
2022/07/28 12:01:20;;;;;;;;;;;;;;;41.03;17.13;101015.75;4443272;32;19953;-69
2022/07/28 12:03:47;;;;;;;;;;;;;;;41.25;17.39;101011.94;4441048;32;20368;-69
2022/07/28 12:06:14;;;;;;;;;;;;;;;41.03;17.74;101009.84;4440836;32;19996;-69
2022/07/28 12:08:59;;;;;;;;;;;;;;;41.56;17.25;101011.50;4443190;32;19992;-67
2022/07/28 12:11:26;;;;;;;;;;;;;;;41.91;16.78;101012.03;4442207;32;20001;-70
2022/07/28 12:14:08;;;;;;;;;;;;;;;41.68;16.91;101012.19;4443314;32;19972;-69
2022/07/28 12:16:36;;;;;;;;;;;;;;;41.41;16.95;101012.84;4440217;32;19953;-69
2022/07/28 12:19:02;;;;;;;;;;;;;;;41.19;17.35;100999.00;4441946;32;19985;-69
2022/07/28 12:21:48;;;;;;;;;;;;;;;41.64;17.34;101011.97;4443737;32;20367;-69
2022/07/28 12:24:14;;;;;;;;;;;;;;;41.85;17.22;100996.13;4441435;32;19957;-69
2022/07/28 12:26:40;;;;;;;;;;;;;;;40.77;17.48;101000.19;4440539;32;20001;-69
2022/07/28 12:29:06;;;;;;;;;;;;;;;40.37;18.32;100994.00;4440028;32;19945;-69
2022/07/28 12:31:32;;;;;;;;;;;;;;;40.09;19.00;100995.16;4444623;32;20024;-69
2022/07/28 12:34:00;;;;;;;;;;;;;;;40.35;18.76;100994.66;4441495;32;19985;-69
2022/07/28 12:36:26;;;;;;;;;;;;;;;41.15;17.85;101005.44;4441896;32;20042;-69
2022/07/28 12:38:52;;;;;;;;;;;;;;;41.99;17.06;100999.91;4438872;32;19989;-68
2022/07/28 12:41:18;;;;;;;;;;;;;;;42.21;16.20;100995.19;4442158;32;19975;-68
2022/07/28 12:43:51;;;;;;;;;;;;;;;41.80;16.39;100994.38;4439385;32;19982;-68
2022/07/28 12:46:21;;;;;;;;;;;;;;;42.13;16.02;100988.81;4443607;32;19961;-68
2022/07/28 12:48:47;;;;;;;;;;;;;;;42.37;15.70;100999.81;4439102;32;19949;-68
2022/07/28 12:51:32;;;;;;;;;;;;;;;42.76;15.59;100985.59;4439653;32;20052;-69
2022/07/28 12:53:58;;;;;;;;;;;;;;;43.35;15.20;100988.56;4441937;32;20334;-68
2022/07/28 12:56:24;;;;;;;;;;;;;;;43.34;14.94;100987.03;4440899;32;20033;-68
2022/07/28 12:59:07;;;;;;;;;;;;;;;43.30;15.00;100995.72;4438485;32;20307;-70
2022/07/28 13:01:52;;;;;;;;;;;;;;;43.15;14.87;100993.50;4441687;32;19992;-69
2022/07/28 13:04:38;;;;;;;;;;;;;;;43.96;14.55;100987.09;4439003;32;20000;-69
2022/07/28 13:07:11;;;;;;;;;;;;;;;44.09;14.39;100987.00;4430939;32;19962;-69
2022/07/28 13:12:14;;;;;;;;;;;;;;;43.93;14.30;100995.16;3951939;32;15723607;-69
2022/07/28 13:14:40;;;;;;;;;;;;;;;43.93;14.30;100995.16;4430885;32;20376;-69
2022/07/28 13:17:05;;;;;;;;;;;;;;;44.14;14.20;100982.75;4429063;32;19965;-69
2022/07/28 13:19:31;;;;;;;;;;;;;;;44.61;13.79;100982.66;4428888;32;19982;-69
2022/07/28 13:21:59;;;;;;;;;;;;;;;46.11;12.93;100988.94;4431203;32;19989;-69
2022/07/28 13:24:25;;;;;;;;;;;;;;;45.73;12.87;100986.66;4430173;32;19985;-69
2022/07/28 13:26:51;;;;;;;;;;;;;;;46.28;12.67;100981.34;4431977;32;20044;-69
2022/07/28 13:29:16;;;;;;;;;;;;;;;45.09;13.08;100981.03;4430549;32;20038;-69
2022/07/28 13:31:42;;;;;;;;;;;;;;;44.63;13.46;100970.91;4435637;32;20023;-69